sensor_id;sensor_type;location;lat;lon;timestamp;temperature;humidity
25811;DHT22;13645;52.460;13.910;2023-07-13T00:00:11;18.30;1.00
25811;DHT22;13645;52.460;13.910;2023-07-13T00:02:38;18.30;1.00
25811;DHT22;13645;52.460;13.910;2023-07-13T00:05:05;18.20;1.00
25811;DHT22;13645;52.460;13.910;2023-07-13T00:07:33;18.20;4.00
25811;DHT22;13645;52.460;13.910;2023-07-13T00:10:00;18.20;14.50
25811;DHT22;13645;52.460;13.910;2023-07-13T00:12:33;18.20;20.10
25811;DHT22;13645;52.460;13.910;2023-07-13T00:15:03;18.20;8.20
25811;DHT22;13645;52.460;13.910;2023-07-13T00:17:30;18.20;9.00
25811;DHT22;13645;52.460;13.910;2023-07-13T00:19:57;18.10;11.40
25811;DHT22;13645;52.460;13.910;2023-07-13T00:22:25;18.10;17.20
25811;DHT22;13645;52.460;13.910;2023-07-13T00:24:53;18.00;19.10
25811;DHT22;13645;52.460;13.910;2023-07-13T00:27:23;18.00;21.20
25811;DHT22;13645;52.460;13.910;2023-07-13T00:29:50;17.90;30.10
25811;DHT22;13645;52.460;13.910;2023-07-13T00:32:17;18.00;45.00
25811;DHT22;13645;52.460;13.910;2023-07-13T00:34:44;18.00;59.30
25811;DHT22;13645;52.460;13.910;2023-07-13T00:37:10;18.00;67.20
25811;DHT22;13645;52.460;13.910;2023-07-13T00:39:38;18.00;69.40
25811;DHT22;13645;52.460;13.910;2023-07-13T00:42:05;18.00;44.10
25811;DHT22;13645;52.460;13.910;2023-07-13T00:44:33;17.90;40.30
25811;DHT22;13645;52.460;13.910;2023-07-13T00:47:00;17.90;44.30
25811;DHT22;13645;52.460;13.910;2023-07-13T00:49:30;17.90;48.60
25811;DHT22;13645;52.460;13.910;2023-07-13T00:52:04;17.80;49.90
25811;DHT22;13645;52.460;13.910;2023-07-13T00:54:40;17.90;48.50
25811;DHT22;13645;52.460;13.910;2023-07-13T00:57:10;17.80;44.40
25811;DHT22;13645;52.460;13.910;2023-07-13T00:59:40;17.70;51.40
25811;DHT22;13645;52.460;13.910;2023-07-13T01:02:09;17.70;57.90
25811;DHT22;13645;52.460;13.910;2023-07-13T01:04:37;17.60;69.80
25811;DHT22;13645;52.460;13.910;2023-07-13T01:07:06;17.60;89.90
25811;DHT22;13645;52.460;13.910;2023-07-13T01:09:33;17.60;99.30
25811;DHT22;13645;52.460;13.910;2023-07-13T01:12:00;17.60;85.30
25811;DHT22;13645;52.460;13.910;2023-07-13T01:14:27;17.60;70.50
25811;DHT22;13645;52.460;13.910;2023-07-13T01:16:54;17.50;73.70
25811;DHT22;13645;52.460;13.910;2023-07-13T01:19:43;17.50;80.40
25811;DHT22;13645;52.460;13.910;2023-07-13T01:22:12;17.50;84.10
25811;DHT22;13645;52.460;13.910;2023-07-13T01:24:41;17.40;85.60
25811;DHT22;13645;52.460;13.910;2023-07-13T01:27:11;17.30;95.20
25811;DHT22;13645;52.460;13.910;2023-07-13T01:29:39;17.30;98.90
25811;DHT22;13645;52.460;13.910;2023-07-13T01:32:20;17.30;99.90
25811;DHT22;13645;52.460;13.910;2023-07-13T01:34:48;17.40;99.90
25811;DHT22;13645;52.460;13.910;2023-07-13T01:37:15;17.40;99.90
25811;DHT22;13645;52.460;13.910;2023-07-13T01:39:42;17.50;99.90
25811;DHT22;13645;52.460;13.910;2023-07-13T01:42:09;17.50;99.90
25811;DHT22;13645;52.460;13.910;2023-07-13T01:44:36;17.60;98.50
25811;DHT22;13645;52.460;13.910;2023-07-13T01:47:03;17.60;99.20
25811;DHT22;13645;52.460;13.910;2023-07-13T01:49:30;17.50;97.20
25811;DHT22;13645;52.460;13.910;2023-07-13T01:51:57;17.50;96.20
25811;DHT22;13645;52.460;13.910;2023-07-13T01:54:24;17.40;99.90
25811;DHT22;13645;52.460;13.910;2023-07-13T01:56:50;17.40;99.10
25811;DHT22;13645;52.460;13.910;2023-07-13T01:59:17;17.40;95.30
25811;DHT22;13645;52.460;13.910;2023-07-13T02:01:44;17.40;93.10
25811;DHT22;13645;52.460;13.910;2023-07-13T02:04:11;17.40;93.50
25811;DHT22;13645;52.460;13.910;2023-07-13T02:06:38;17.40;93.60
25811;DHT22;13645;52.460;13.910;2023-07-13T02:09:05;17.30;98.70
25811;DHT22;13645;52.460;13.910;2023-07-13T02:11:33;17.30;97.60
25811;DHT22;13645;52.460;13.910;2023-07-13T02:14:01;17.20;96.70
25811;DHT22;13645;52.460;13.910;2023-07-13T02:16:29;17.10;99.90
25811;DHT22;13645;52.460;13.910;2023-07-13T02:18:57;17.10;99.90
25811;DHT22;13645;52.460;13.910;2023-07-13T02:21:24;17.00;99.90
25811;DHT22;13645;52.460;13.910;2023-07-13T02:23:51;17.00;99.90
25811;DHT22;13645;52.460;13.910;2023-07-13T02:26:19;16.90;99.90
25811;DHT22;13645;52.460;13.910;2023-07-13T02:28:46;16.90;99.90
25811;DHT22;13645;52.460;13.910;2023-07-13T02:31:15;16.80;99.90
25811;DHT22;13645;52.460;13.910;2023-07-13T02:33:42;16.80;99.90
25811;DHT22;13645;52.460;13.910;2023-07-13T02:36:10;16.80;99.90
25811;DHT22;13645;52.460;13.910;2023-07-13T02:38:38;16.80;99.90
25811;DHT22;13645;52.460;13.910;2023-07-13T02:41:06;16.80;99.90
25811;DHT22;13645;52.460;13.910;2023-07-13T02:43:34;16.70;99.90
25811;DHT22;13645;52.460;13.910;2023-07-13T02:46:01;16.70;99.90
25811;DHT22;13645;52.460;13.910;2023-07-13T02:48:34;16.60;99.90
25811;DHT22;13645;52.460;13.910;2023-07-13T02:51:01;16.60;99.90
25811;DHT22;13645;52.460;13.910;2023-07-13T02:53:28;16.50;99.90
25811;DHT22;13645;52.460;13.910;2023-07-13T02:55:55;16.40;99.90
25811;DHT22;13645;52.460;13.910;2023-07-13T02:58:22;16.40;99.90
25811;DHT22;13645;52.460;13.910;2023-07-13T03:00:49;16.30;99.90
25811;DHT22;13645;52.460;13.910;2023-07-13T03:03:17;16.30;99.90
25811;DHT22;13645;52.460;13.910;2023-07-13T03:05:45;16.30;99.90
25811;DHT22;13645;52.460;13.910;2023-07-13T03:08:17;16.20;99.90
25811;DHT22;13645;52.460;13.910;2023-07-13T03:10:44;16.20;99.90
25811;DHT22;13645;52.460;13.910;2023-07-13T03:13:11;16.20;99.90
25811;DHT22;13645;52.460;13.910;2023-07-13T03:15:38;16.20;99.90
25811;DHT22;13645;52.460;13.910;2023-07-13T03:18:05;16.20;99.90
25811;DHT22;13645;52.460;13.910;2023-07-13T03:20:33;16.20;99.90
25811;DHT22;13645;52.460;13.910;2023-07-13T03:23:00;16.20;99.90
25811;DHT22;13645;52.460;13.910;2023-07-13T03:25:27;16.20;99.90
25811;DHT22;13645;52.460;13.910;2023-07-13T03:27:54;16.20;99.90
25811;DHT22;13645;52.460;13.910;2023-07-13T03:30:21;16.20;99.90
25811;DHT22;13645;52.460;13.910;2023-07-13T03:32:48;16.20;99.90
25811;DHT22;13645;52.460;13.910;2023-07-13T03:35:15;16.10;99.90
25811;DHT22;13645;52.460;13.910;2023-07-13T03:37:41;16.10;99.90
25811;DHT22;13645;52.460;13.910;2023-07-13T03:40:10;16.10;99.90
25811;DHT22;13645;52.460;13.910;2023-07-13T03:42:36;16.10;99.90
25811;DHT22;13645;52.460;13.910;2023-07-13T03:45:04;16.10;99.90
25811;DHT22;13645;52.460;13.910;2023-07-13T03:47:31;16.10;99.90
25811;DHT22;13645;52.460;13.910;2023-07-13T03:49:58;16.20;99.90
25811;DHT22;13645;52.460;13.910;2023-07-13T03:52:24;16.20;99.90
25811;DHT22;13645;52.460;13.910;2023-07-13T03:54:51;16.30;99.90
25811;DHT22;13645;52.460;13.910;2023-07-13T03:57:18;16.30;99.90
25811;DHT22;13645;52.460;13.910;2023-07-13T03:59:45;16.40;99.90
25811;DHT22;13645;52.460;13.910;2023-07-13T04:02:12;16.40;99.90
25811;DHT22;13645;52.460;13.910;2023-07-13T04:04:39;16.50;99.90
25811;DHT22;13645;52.460;13.910;2023-07-13T04:07:07;16.50;99.90
25811;DHT22;13645;52.460;13.910;2023-07-13T04:09:37;16.50;99.90
25811;DHT22;13645;52.460;13.910;2023-07-13T04:12:04;16.60;99.90
25811;DHT22;13645;52.460;13.910;2023-07-13T04:14:31;16.60;99.90
25811;DHT22;13645;52.460;13.910;2023-07-13T04:16:58;16.60;99.90
25811;DHT22;13645;52.460;13.910;2023-07-13T04:19:25;16.60;99.90
25811;DHT22;13645;52.460;13.910;2023-07-13T04:21:51;16.60;99.90
25811;DHT22;13645;52.460;13.910;2023-07-13T04:24:18;16.70;99.90
25811;DHT22;13645;52.460;13.910;2023-07-13T04:26:45;16.70;99.90
25811;DHT22;13645;52.460;13.910;2023-07-13T04:29:12;16.70;99.90
25811;DHT22;13645;52.460;13.910;2023-07-13T04:31:39;16.80;99.90
25811;DHT22;13645;52.460;13.910;2023-07-13T04:34:06;16.80;99.90
25811;DHT22;13645;52.460;13.910;2023-07-13T04:36:33;16.90;99.90
25811;DHT22;13645;52.460;13.910;2023-07-13T04:39:00;17.00;99.90
25811;DHT22;13645;52.460;13.910;2023-07-13T04:41:26;17.00;99.90
25811;DHT22;13645;52.460;13.910;2023-07-13T04:43:54;17.10;99.90
25811;DHT22;13645;52.460;13.910;2023-07-13T04:46:22;17.20;99.90
25811;DHT22;13645;52.460;13.910;2023-07-13T04:48:50;17.30;99.90
25811;DHT22;13645;52.460;13.910;2023-07-13T04:51:20;17.30;99.90
25811;DHT22;13645;52.460;13.910;2023-07-13T04:53:46;17.40;99.90
25811;DHT22;13645;52.460;13.910;2023-07-13T04:56:13;17.50;99.90
25811;DHT22;13645;52.460;13.910;2023-07-13T04:58:40;17.60;99.90
25811;DHT22;13645;52.460;13.910;2023-07-13T05:01:07;17.60;99.90
25811;DHT22;13645;52.460;13.910;2023-07-13T05:03:35;17.80;99.90
25811;DHT22;13645;52.460;13.910;2023-07-13T05:06:07;17.80;99.90
25811;DHT22;13645;52.460;13.910;2023-07-13T05:08:36;17.90;99.90
25811;DHT22;13645;52.460;13.910;2023-07-13T05:11:04;17.90;99.90
25811;DHT22;13645;52.460;13.910;2023-07-13T05:13:31;17.90;99.90
25811;DHT22;13645;52.460;13.910;2023-07-13T05:16:00;18.00;99.90
25811;DHT22;13645;52.460;13.910;2023-07-13T05:18:28;18.10;99.90
25811;DHT22;13645;52.460;13.910;2023-07-13T05:21:03;18.10;99.90
25811;DHT22;13645;52.460;13.910;2023-07-13T05:23:31;18.30;99.90
25811;DHT22;13645;52.460;13.910;2023-07-13T05:25:58;18.40;99.90
25811;DHT22;13645;52.460;13.910;2023-07-13T05:28:26;18.50;99.90
25811;DHT22;13645;52.460;13.910;2023-07-13T05:30:55;18.70;99.90
25811;DHT22;13645;52.460;13.910;2023-07-13T05:33:22;18.70;99.90
25811;DHT22;13645;52.460;13.910;2023-07-13T05:35:49;18.80;99.90
25811;DHT22;13645;52.460;13.910;2023-07-13T05:38:16;18.90;99.90
25811;DHT22;13645;52.460;13.910;2023-07-13T05:40:44;19.00;99.90
25811;DHT22;13645;52.460;13.910;2023-07-13T05:43:11;19.10;99.90
25811;DHT22;13645;52.460;13.910;2023-07-13T05:45:38;19.20;99.90
25811;DHT22;13645;52.460;13.910;2023-07-13T05:48:05;19.40;99.10
25811;DHT22;13645;52.460;13.910;2023-07-13T05:50:32;19.40;57.10
25811;DHT22;13645;52.460;13.910;2023-07-13T05:52:59;19.50;51.80
25811;DHT22;13645;52.460;13.910;2023-07-13T05:55:25;19.60;44.50
25811;DHT22;13645;52.460;13.910;2023-07-13T05:57:52;19.70;29.20
25811;DHT22;13645;52.460;13.910;2023-07-13T06:00:19;19.80;18.40
25811;DHT22;13645;52.460;13.910;2023-07-13T06:02:46;19.90;20.20
25811;DHT22;13645;52.460;13.910;2023-07-13T06:05:13;20.00;19.50
25811;DHT22;13645;52.460;13.910;2023-07-13T06:07:40;20.10;4.70
25811;DHT22;13645;52.460;13.910;2023-07-13T06:10:07;20.20;1.00
25811;DHT22;13645;52.460;13.910;2023-07-13T06:12:34;20.20;1.00
25811;DHT22;13645;52.460;13.910;2023-07-13T06:15:01;20.30;1.00
25811;DHT22;13645;52.460;13.910;2023-07-13T06:17:28;20.50;1.00
25811;DHT22;13645;52.460;13.910;2023-07-13T06:19:54;20.60;1.00
25811;DHT22;13645;52.460;13.910;2023-07-13T06:22:21;20.60;1.00
25811;DHT22;13645;52.460;13.910;2023-07-13T06:24:48;20.80;1.00
25811;DHT22;13645;52.460;13.910;2023-07-13T06:27:15;21.00;1.00
25811;DHT22;13645;52.460;13.910;2023-07-13T06:29:42;21.10;1.00
25811;DHT22;13645;52.460;13.910;2023-07-13T06:32:11;21.10;1.00
25811;DHT22;13645;52.460;13.910;2023-07-13T06:34:38;21.20;1.00
25811;DHT22;13645;52.460;13.910;2023-07-13T06:37:09;21.20;1.00
25811;DHT22;13645;52.460;13.910;2023-07-13T06:39:36;21.40;1.00
25811;DHT22;13645;52.460;13.910;2023-07-13T06:42:03;21.60;1.00
25811;DHT22;13645;52.460;13.910;2023-07-13T06:44:31;21.80;1.00
25811;DHT22;13645;52.460;13.910;2023-07-13T06:46:58;22.00;1.00
25811;DHT22;13645;52.460;13.910;2023-07-13T06:49:24;22.20;1.00
25811;DHT22;13645;52.460;13.910;2023-07-13T06:51:51;22.40;1.00
25811;DHT22;13645;52.460;13.910;2023-07-13T06:54:18;22.40;1.00
25811;DHT22;13645;52.460;13.910;2023-07-13T06:56:45;22.70;1.00
25811;DHT22;13645;52.460;13.910;2023-07-13T06:59:11;22.80;1.00
25811;DHT22;13645;52.460;13.910;2023-07-13T07:01:38;22.90;1.00
25811;DHT22;13645;52.460;13.910;2023-07-13T07:04:07;23.10;1.00
25811;DHT22;13645;52.460;13.910;2023-07-13T07:06:35;23.20;1.00
25811;DHT22;13645;52.460;13.910;2023-07-13T07:09:02;23.20;1.00
25811;DHT22;13645;52.460;13.910;2023-07-13T07:11:28;23.50;1.00
25811;DHT22;13645;52.460;13.910;2023-07-13T07:13:55;23.60;1.00
25811;DHT22;13645;52.460;13.910;2023-07-13T07:16:24;23.80;1.00
25811;DHT22;13645;52.460;13.910;2023-07-13T07:18:51;23.90;99.90
25811;DHT22;13645;52.460;13.910;2023-07-13T07:21:18;24.10;1.00
25811;DHT22;13645;52.460;13.910;2023-07-13T07:23:46;24.30;99.90
25811;DHT22;13645;52.460;13.910;2023-07-13T07:26:13;24.40;99.90
25811;DHT22;13645;52.460;13.910;2023-07-13T07:28:39;24.20;99.90
25811;DHT22;13645;52.460;13.910;2023-07-13T07:31:11;24.30;99.90
25811;DHT22;13645;52.460;13.910;2023-07-13T07:33:41;24.60;99.90
25811;DHT22;13645;52.460;13.910;2023-07-13T07:36:08;24.40;99.90
25811;DHT22;13645;52.460;13.910;2023-07-13T07:38:38;24.60;58.90
25811;DHT22;13645;52.460;13.910;2023-07-13T07:41:05;25.10;72.40
25811;DHT22;13645;52.460;13.910;2023-07-13T07:43:35;25.60;1.00
25811;DHT22;13645;52.460;13.910;2023-07-13T07:46:03;26.00;1.00
25811;DHT22;13645;52.460;13.910;2023-07-13T07:48:30;26.30;99.90
25811;DHT22;13645;52.460;13.910;2023-07-13T07:50:57;26.40;25.10
25811;DHT22;13645;52.460;13.910;2023-07-13T07:53:24;26.40;45.20
25811;DHT22;13645;52.460;13.910;2023-07-13T07:55:51;26.40;1.00
25811;DHT22;13645;52.460;13.910;2023-07-13T07:58:21;26.10;99.90
25811;DHT22;13645;52.460;13.910;2023-07-13T08:00:51;26.30;99.90
25811;DHT22;13645;52.460;13.910;2023-07-13T08:03:21;26.10;1.00
25811;DHT22;13645;52.460;13.910;2023-07-13T08:05:53;26.20;6.60
25811;DHT22;13645;52.460;13.910;2023-07-13T08:08:23;26.50;99.90
25811;DHT22;13645;52.460;13.910;2023-07-13T08:10:51;26.80;99.90
25811;DHT22;13645;52.460;13.910;2023-07-13T08:13:20;26.90;99.90
25811;DHT22;13645;52.460;13.910;2023-07-13T08:15:47;27.30;1.00
25811;DHT22;13645;52.460;13.910;2023-07-13T08:18:14;27.40;1.00
25811;DHT22;13645;52.460;13.910;2023-07-13T08:20:41;27.80;99.90
25811;DHT22;13645;52.460;13.910;2023-07-13T08:23:10;28.00;1.00
25811;DHT22;13645;52.460;13.910;2023-07-13T08:25:37;28.00;1.00
25811;DHT22;13645;52.460;13.910;2023-07-13T08:28:04;27.80;1.00
25811;DHT22;13645;52.460;13.910;2023-07-13T08:30:31;28.00;99.90
25811;DHT22;13645;52.460;13.910;2023-07-13T08:32:59;28.00;99.90
25811;DHT22;13645;52.460;13.910;2023-07-13T08:35:26;28.10;33.20
25811;DHT22;13645;52.460;13.910;2023-07-13T08:37:52;27.80;42.10
25811;DHT22;13645;52.460;13.910;2023-07-13T08:40:24;27.90;1.00
25811;DHT22;13645;52.460;13.910;2023-07-13T08:42:58;28.00;1.00
25811;DHT22;13645;52.460;13.910;2023-07-13T08:45:52;27.70;1.00
25811;DHT22;13645;52.460;13.910;2023-07-13T08:48:51;27.70;99.90
25811;DHT22;13645;52.460;13.910;2023-07-13T08:51:35;27.80;99.90
25811;DHT22;13645;52.460;13.910;2023-07-13T08:56:45;27.90;99.90
25811;DHT22;13645;52.460;13.910;2023-07-13T08:59:18;28.50;99.90
25811;DHT22;13645;52.460;13.910;2023-07-13T09:01:50;29.00;23.60
25811;DHT22;13645;52.460;13.910;2023-07-13T09:04:28;29.00;1.00
25811;DHT22;13645;52.460;13.910;2023-07-13T09:07:14;28.40;1.00
25811;DHT22;13645;52.460;13.910;2023-07-13T09:15:46;26.00;40.00
25811;DHT22;13645;52.460;13.910;2023-07-13T09:18:35;25.50;99.90
25811;DHT22;13645;52.460;13.910;2023-07-13T09:21:12;25.20;99.90
25811;DHT22;13645;52.460;13.910;2023-07-13T09:23:40;24.80;99.90
25811;DHT22;13645;52.460;13.910;2023-07-13T09:26:14;24.80;1.00
25811;DHT22;13645;52.460;13.910;2023-07-13T09:28:45;25.30;10.90
25811;DHT22;13645;52.460;13.910;2023-07-13T09:31:16;26.10;1.00
25811;DHT22;13645;52.460;13.910;2023-07-13T09:33:43;26.80;1.00
25811;DHT22;13645;52.460;13.910;2023-07-13T09:46:43;28.50;1.00
25811;DHT22;13645;52.460;13.910;2023-07-13T09:49:10;28.10;1.00
25811;DHT22;13645;52.460;13.910;2023-07-13T09:51:40;27.90;1.00
25811;DHT22;13645;52.460;13.910;2023-07-13T09:54:18;27.40;1.00
25811;DHT22;13645;52.460;13.910;2023-07-13T09:56:46;27.00;1.00
25811;DHT22;13645;52.460;13.910;2023-07-13T09:59:20;26.70;1.00
25811;DHT22;13645;52.460;13.910;2023-07-13T10:01:47;26.70;1.00
25811;DHT22;13645;52.460;13.910;2023-07-13T10:04:18;27.30;1.00
25811;DHT22;13645;52.460;13.910;2023-07-13T10:06:46;28.10;1.00
25811;DHT22;13645;52.460;13.910;2023-07-13T10:09:17;28.60;1.00
25811;DHT22;13645;52.460;13.910;2023-07-13T10:11:45;29.10;1.00
25811;DHT22;13645;52.460;13.910;2023-07-13T10:14:20;28.70;99.90
25811;DHT22;13645;52.460;13.910;2023-07-13T10:16:57;27.80;99.90
25811;DHT22;13645;52.460;13.910;2023-07-13T10:19:26;27.40;99.90
25811;DHT22;13645;52.460;13.910;2023-07-13T10:21:59;27.10;99.90
25811;DHT22;13645;52.460;13.910;2023-07-13T10:24:31;26.80;99.90
25811;DHT22;13645;52.460;13.910;2023-07-13T10:27:17;26.90;99.90
25811;DHT22;13645;52.460;13.910;2023-07-13T10:30:05;26.90;99.90
25811;DHT22;13645;52.460;13.910;2023-07-13T10:32:35;27.00;99.90
25811;DHT22;13645;52.460;13.910;2023-07-13T10:35:03;26.80;99.90
25811;DHT22;13645;52.460;13.910;2023-07-13T10:37:36;26.80;99.90
25811;DHT22;13645;52.460;13.910;2023-07-13T10:40:11;26.80;99.90
25811;DHT22;13645;52.460;13.910;2023-07-13T10:42:42;26.50;99.90
25811;DHT22;13645;52.460;13.910;2023-07-13T10:45:17;26.30;99.90
25811;DHT22;13645;52.460;13.910;2023-07-13T10:47:44;26.70;99.90
25811;DHT22;13645;52.460;13.910;2023-07-13T10:50:23;27.10;1.00
25811;DHT22;13645;52.460;13.910;2023-07-13T10:52:53;27.80;1.00
25811;DHT22;13645;52.460;13.910;2023-07-13T10:58:24;29.20;99.90
25811;DHT22;13645;52.460;13.910;2023-07-13T11:01:10;29.80;99.90
25811;DHT22;13645;52.460;13.910;2023-07-13T11:03:54;30.20;99.90
25811;DHT22;13645;52.460;13.910;2023-07-13T11:08:56;30.10;99.90
25811;DHT22;13645;52.460;13.910;2023-07-13T11:18:50;29.30;2.50
25811;DHT22;13645;52.460;13.910;2023-07-13T11:24:16;28.30;1.00
25811;DHT22;13645;52.460;13.910;2023-07-13T11:26:51;28.50;66.30
25811;DHT22;13645;52.460;13.910;2023-07-13T11:31:56;29.20;99.90
25811;DHT22;13645;52.460;13.910;2023-07-13T11:34:30;29.50;99.90
25811;DHT22;13645;52.460;13.910;2023-07-13T11:36:59;29.70;99.90
25811;DHT22;13645;52.460;13.910;2023-07-13T11:39:35;29.90;1.00
25811;DHT22;13645;52.460;13.910;2023-07-13T11:42:07;29.90;1.00
25811;DHT22;13645;52.460;13.910;2023-07-13T11:44:41;29.50;1.00
25811;DHT22;13645;52.460;13.910;2023-07-13T11:47:25;29.70;1.00
25811;DHT22;13645;52.460;13.910;2023-07-13T11:49:54;29.60;1.00
25811;DHT22;13645;52.460;13.910;2023-07-13T11:52:37;29.80;1.00
25811;DHT22;13645;52.460;13.910;2023-07-13T11:55:14;29.60;1.00
25811;DHT22;13645;52.460;13.910;2023-07-13T11:57:47;29.00;1.00
25811;DHT22;13645;52.460;13.910;2023-07-13T12:00:22;29.30;1.00
25811;DHT22;13645;52.460;13.910;2023-07-13T12:02:51;29.60;1.00
25811;DHT22;13645;52.460;13.910;2023-07-13T12:05:19;29.50;1.00
25811;DHT22;13645;52.460;13.910;2023-07-13T12:07:50;29.80;1.00
25811;DHT22;13645;52.460;13.910;2023-07-13T12:12:55;30.70;1.00
25811;DHT22;13645;52.460;13.910;2023-07-13T12:15:23;30.90;1.00
25811;DHT22;13645;52.460;13.910;2023-07-13T12:17:50;30.80;1.00
25811;DHT22;13645;52.460;13.910;2023-07-13T12:20:27;31.00;1.00
25811;DHT22;13645;52.460;13.910;2023-07-13T12:22:55;31.00;1.00
25811;DHT22;13645;52.460;13.910;2023-07-13T12:25:23;30.90;1.00
25811;DHT22;13645;52.460;13.910;2023-07-13T12:27:51;30.80;1.00
25811;DHT22;13645;52.460;13.910;2023-07-13T12:33:11;30.70;1.00
25811;DHT22;13645;52.460;13.910;2023-07-13T12:35:47;30.50;99.90
25811;DHT22;13645;52.460;13.910;2023-07-13T12:38:15;30.30;99.90
25811;DHT22;13645;52.460;13.910;2023-07-13T12:40:42;30.50;99.90
25811;DHT22;13645;52.460;13.910;2023-07-13T12:43:13;30.70;99.90
25811;DHT22;13645;52.460;13.910;2023-07-13T12:46:00;30.50;99.90
25811;DHT22;13645;52.460;13.910;2023-07-13T12:48:28;30.40;99.90
25811;DHT22;13645;52.460;13.910;2023-07-13T12:51:12;30.50;99.90
25811;DHT22;13645;52.460;13.910;2023-07-13T12:53:42;30.10;99.90
25811;DHT22;13645;52.460;13.910;2023-07-13T12:56:21;29.50;99.90
25811;DHT22;13645;52.460;13.910;2023-07-13T12:58:50;29.80;99.90
25811;DHT22;13645;52.460;13.910;2023-07-13T13:01:22;30.00;99.90
25811;DHT22;13645;52.460;13.910;2023-07-13T13:03:52;29.90;99.90
25811;DHT22;13645;52.460;13.910;2023-07-13T13:06:23;29.60;99.90
25811;DHT22;13645;52.460;13.910;2023-07-13T13:08:55;29.20;99.90
25811;DHT22;13645;52.460;13.910;2023-07-13T13:11:24;28.60;99.90
25811;DHT22;13645;52.460;13.910;2023-07-13T13:13:51;28.50;99.90
25811;DHT22;13645;52.460;13.910;2023-07-13T13:19:25;28.90;99.90
25811;DHT22;13645;52.460;13.910;2023-07-13T13:21:55;28.90;99.90
25811;DHT22;13645;52.460;13.910;2023-07-13T13:24:26;28.90;99.90
25811;DHT22;13645;52.460;13.910;2023-07-13T13:26:54;29.20;99.90
25811;DHT22;13645;52.460;13.910;2023-07-13T13:29:24;29.60;99.90
25811;DHT22;13645;52.460;13.910;2023-07-13T13:31:53;30.00;99.90
25811;DHT22;13645;52.460;13.910;2023-07-13T13:34:21;30.00;99.90
25811;DHT22;13645;52.460;13.910;2023-07-13T13:36:53;30.10;99.90
25811;DHT22;13645;52.460;13.910;2023-07-13T13:39:32;29.70;99.90
25811;DHT22;13645;52.460;13.910;2023-07-13T13:42:00;29.40;99.90
25811;DHT22;13645;52.460;13.910;2023-07-13T13:44:27;29.10;99.90
25811;DHT22;13645;52.460;13.910;2023-07-13T13:46:55;29.10;99.90
25811;DHT22;13645;52.460;13.910;2023-07-13T13:49:25;29.70;99.90
25811;DHT22;13645;52.460;13.910;2023-07-13T13:51:53;30.00;99.90
25811;DHT22;13645;52.460;13.910;2023-07-13T13:54:21;30.20;99.90
25811;DHT22;13645;52.460;13.910;2023-07-13T13:56:50;29.60;99.90
25811;DHT22;13645;52.460;13.910;2023-07-13T13:59:18;29.00;99.90
25811;DHT22;13645;52.460;13.910;2023-07-13T14:01:47;28.70;99.90
25811;DHT22;13645;52.460;13.910;2023-07-13T14:04:18;28.60;99.90
25811;DHT22;13645;52.460;13.910;2023-07-13T14:06:46;28.60;99.90
25811;DHT22;13645;52.460;13.910;2023-07-13T14:09:15;28.90;99.90
25811;DHT22;13645;52.460;13.910;2023-07-13T14:11:42;28.80;99.90
25811;DHT22;13645;52.460;13.910;2023-07-13T14:14:19;29.20;99.90
25811;DHT22;13645;52.460;13.910;2023-07-13T14:16:47;29.20;99.90
25811;DHT22;13645;52.460;13.910;2023-07-13T14:19:20;29.50;99.90
25811;DHT22;13645;52.460;13.910;2023-07-13T14:21:47;29.30;99.90
25811;DHT22;13645;52.460;13.910;2023-07-13T14:24:16;29.10;99.90
25811;DHT22;13645;52.460;13.910;2023-07-13T14:26:45;28.90;99.90
25811;DHT22;13645;52.460;13.910;2023-07-13T14:29:14;29.10;99.90
25811;DHT22;13645;52.460;13.910;2023-07-13T14:31:44;29.30;99.90
25811;DHT22;13645;52.460;13.910;2023-07-13T14:34:11;29.30;99.90
25811;DHT22;13645;52.460;13.910;2023-07-13T14:36:44;28.90;99.90
25811;DHT22;13645;52.460;13.910;2023-07-13T14:39:15;28.60;99.90
25811;DHT22;13645;52.460;13.910;2023-07-13T14:41:43;28.30;99.90
25811;DHT22;13645;52.460;13.910;2023-07-13T14:44:14;28.70;99.90
25811;DHT22;13645;52.460;13.910;2023-07-13T14:46:42;28.60;99.90
25811;DHT22;13645;52.460;13.910;2023-07-13T14:49:25;28.70;99.90
25811;DHT22;13645;52.460;13.910;2023-07-13T14:51:55;28.70;99.90
25811;DHT22;13645;52.460;13.910;2023-07-13T14:54:24;28.50;99.90
25811;DHT22;13645;52.460;13.910;2023-07-13T14:56:51;28.10;99.90
25811;DHT22;13645;52.460;13.910;2023-07-13T14:59:18;27.40;99.90
25811;DHT22;13645;52.460;13.910;2023-07-13T15:01:47;27.00;99.90
25811;DHT22;13645;52.460;13.910;2023-07-13T15:04:15;26.90;99.90
25811;DHT22;13645;52.460;13.910;2023-07-13T15:07:00;27.10;99.90
25811;DHT22;13645;52.460;13.910;2023-07-13T15:09:28;27.30;99.90
25811;DHT22;13645;52.460;13.910;2023-07-13T15:11:56;27.60;99.90
25811;DHT22;13645;52.460;13.910;2023-07-13T15:14:24;27.90;99.90
25811;DHT22;13645;52.460;13.910;2023-07-13T15:16:53;27.80;99.90
25811;DHT22;13645;52.460;13.910;2023-07-13T15:19:21;27.60;99.90
25811;DHT22;13645;52.460;13.910;2023-07-13T15:21:50;27.70;99.90
25811;DHT22;13645;52.460;13.910;2023-07-13T15:24:18;27.80;99.90
25811;DHT22;13645;52.460;13.910;2023-07-13T15:26:45;27.60;99.90
25811;DHT22;13645;52.460;13.910;2023-07-13T15:29:13;27.40;99.90
25811;DHT22;13645;52.460;13.910;2023-07-13T15:31:40;27.00;99.90
25811;DHT22;13645;52.460;13.910;2023-07-13T15:34:15;27.30;99.90
25811;DHT22;13645;52.460;13.910;2023-07-13T15:36:43;27.70;99.90
25811;DHT22;13645;52.460;13.910;2023-07-13T15:39:16;27.60;99.90
25811;DHT22;13645;52.460;13.910;2023-07-13T15:41:44;27.60;99.90
25811;DHT22;13645;52.460;13.910;2023-07-13T15:44:26;27.80;99.90
25811;DHT22;13645;52.460;13.910;2023-07-13T15:46:54;27.80;99.90
25811;DHT22;13645;52.460;13.910;2023-07-13T15:49:21;27.70;99.90
25811;DHT22;13645;52.460;13.910;2023-07-13T15:51:49;27.50;99.90
25811;DHT22;13645;52.460;13.910;2023-07-13T15:54:17;27.50;99.90
25811;DHT22;13645;52.460;13.910;2023-07-13T15:56:47;27.50;99.90
25811;DHT22;13645;52.460;13.910;2023-07-13T15:59:17;27.20;99.90
25811;DHT22;13645;52.460;13.910;2023-07-13T16:01:44;27.00;99.90
25811;DHT22;13645;52.460;13.910;2023-07-13T16:04:13;27.10;99.90
25811;DHT22;13645;52.460;13.910;2023-07-13T16:06:41;27.10;99.90
25811;DHT22;13645;52.460;13.910;2023-07-13T16:09:17;27.10;99.90
25811;DHT22;13645;52.460;13.910;2023-07-13T16:11:44;27.20;99.90
25811;DHT22;13645;52.460;13.910;2023-07-13T16:14:14;27.30;99.90
25811;DHT22;13645;52.460;13.910;2023-07-13T16:16:42;27.50;99.90
25811;DHT22;13645;52.460;13.910;2023-07-13T16:19:10;27.50;99.90